Time;durP1;ratioP1;P1;durP2;ratioP2;P2;SDS_P1;SDS_P2;PMS_P1;PMS_P2;Temp;Humidity;BMP_temperature;BMP_pressure;BME280_temperature;BME280_humidity;BME280_pressure;Samples;Min_cycle;Max_cycle;Signal;HPM_P1;HPM_P2
2021/08/22 00:01:09;;;;;;;7.80;3.90;;;;;;;16.50;60.91;91134.38;4960691;28;20030;-86
2021/08/22 00:03:48;;;;;;;7.95;3.88;;;;;;;16.52;62.20;91147.19;4961358;28;20109;-86
2021/08/22 00:06:26;;;;;;;8.73;4.25;;;;;;;16.45;62.67;91148.63;4960603;28;20068;-86
2021/08/22 00:09:05;;;;;;;6.07;3.75;;;;;;;16.32;64.96;91143.94;4977376;28;20168;-85
2021/08/22 00:11:48;;;;;;;6.75;3.95;;;;;;;16.31;64.93;91137.16;4979795;28;20030;-86
2021/08/22 00:14:24;;;;;;;7.50;3.55;;;;;;;16.17;67.45;91140.38;5001260;28;20033;-85
2021/08/22 00:17:02;;;;;;;7.43;4.38;;;;;;;15.97;70.11;91129.22;4975863;28;20116;-85
2021/08/22 00:19:38;;;;;;;6.90;4.43;;;;;;;15.81;71.99;91123.38;4958726;28;20026;-85
2021/08/22 00:22:20;;;;;;;8.63;4.50;;;;;;;15.65;73.12;91119.00;4976201;28;20022;-86
2021/08/22 00:24:49;;;;;;;9.13;4.55;;;;;;;15.62;74.45;91121.56;4974860;28;20076;-85
2021/08/22 00:27:31;;;;;;;7.95;4.65;;;;;;;15.50;75.81;91125.91;4973426;28;20022;-85
2021/08/22 00:29:58;;;;;;;8.40;4.35;;;;;;;15.57;75.14;91122.63;4981456;28;20036;-86
2021/08/22 00:32:38;;;;;;;9.65;4.80;;;;;;;15.42;77.63;91131.41;4989228;28;20096;-85
2021/08/22 00:35:15;;;;;;;8.05;4.63;;;;;;;15.37;78.46;91136.94;4960574;28;20030;-85
2021/08/22 00:37:56;;;;;;;10.10;5.10;;;;;;;15.27;79.08;91130.44;4946489;28;20026;-85
2021/08/22 00:40:36;;;;;;;10.57;4.75;;;;;;;15.21;81.02;91122.09;4945977;28;20026;-85
2021/08/22 00:43:15;;;;;;;8.63;4.70;;;;;;;15.15;80.99;91105.09;4962686;28;20042;-85
2021/08/22 00:45:51;;;;;;;8.48;5.03;;;;;;;15.16;81.20;91114.53;4945751;28;20062;-85
2021/08/22 00:48:30;;;;;;;9.88;5.22;;;;;;;15.02;82.92;91109.03;4962273;28;20398;-85
2021/08/22 00:51:07;;;;;;;9.13;4.55;;;;;;;14.96;83.47;91107.81;4976612;28;20022;-86
2021/08/22 00:53:50;;;;;;;10.82;5.45;;;;;;;14.96;83.92;91113.06;4965975;28;20143;-85
2021/08/22 00:56:28;;;;;;;8.20;4.78;;;;;;;14.95;84.50;91114.16;4981741;28;20034;-85
2021/08/22 00:59:13;;;;;;;9.25;5.20;;;;;;;14.84;84.57;91119.22;4997856;28;20523;-86
2021/08/22 01:01:54;;;;;;;7.75;5.07;;;;;;;15.11;82.63;91121.91;5000046;28;20030;-85
2021/08/22 01:04:54;;;;;;;10.50;4.72;;;;;;;14.75;84.13;91097.69;4989030;28;20030;-86
2021/08/22 01:07:40;;;;;;;8.00;5.05;;;;;;;14.73;85.05;91103.28;4952589;28;20031;-85
2021/08/22 01:10:18;;;;;;;10.68;5.10;;;;;;;14.74;84.06;91089.06;4951858;28;20030;-86
2021/08/22 01:12:54;;;;;;;7.18;4.57;;;;;;;14.77;80.92;91080.50;4969227;28;20454;-85
2021/08/22 01:15:28;;;;;;;8.18;4.85;;;;;;;14.82;79.55;91066.34;4952114;28;20221;-86
2021/08/22 01:18:00;;;;;;;8.43;4.90;;;;;;;14.69;80.70;91076.22;4951954;28;20026;-86
2021/08/22 01:20:54;;;;;;;9.30;4.43;;;;;;;14.82;78.64;91085.47;4968163;28;20054;-86
2021/08/22 01:23:32;;;;;;;8.27;4.75;;;;;;;14.71;80.32;91074.03;4969519;28;20087;-85
2021/08/22 01:26:13;;;;;;;8.75;4.72;;;;;;;14.56;80.93;91069.66;4991385;28;20029;-86
2021/08/22 01:28:47;;;;;;;9.00;4.60;;;;;;;14.54;81.12;91069.22;4988719;28;20034;-85
2021/08/22 01:31:26;;;;;;;8.88;4.45;;;;;;;14.60;79.86;91074.97;4982425;28;20096;-84
2021/08/22 01:34:01;;;;;;;9.90;4.22;;;;;;;14.64;77.05;91078.41;4967476;28;20030;-85
2021/08/22 01:36:36;;;;;;;7.57;4.25;;;;;;;14.54;77.53;91084.97;4967705;28;20025;-85
2021/08/22 01:39:15;;;;;;;8.93;4.32;;;;;;;14.64;76.95;91088.88;4982974;28;20430;-85
2021/08/22 01:41:55;;;;;;;8.35;4.65;;;;;;;14.52;78.08;91092.41;4967510;28;20033;-85
2021/08/22 01:44:32;;;;;;;7.57;4.68;;;;;;;14.42;78.36;91087.72;4983968;28;20502;-85
2021/08/22 01:47:08;;;;;;;8.68;4.82;;;;;;;14.49;79.16;91085.22;4982579;28;20632;-84
2021/08/22 01:49:44;;;;;;;8.07;4.30;;;;;;;14.54;74.96;91080.47;4964630;28;20376;-85
2021/08/22 01:52:26;;;;;;;10.90;4.10;;;;;;;14.75;74.86;91095.81;4964521;28;20030;-85
2021/08/22 01:55:01;;;;;;;6.88;4.15;;;;;;;14.88;72.43;91100.94;4963889;28;20034;-86
2021/08/22 01:57:34;;;;;;;;;;;;;;;14.76;75.39;91099.97;4963540;28;20057;-87
2021/08/22 02:00:05;;;;;;;11.18;4.88;;;;;;;14.50;77.68;91079.66;4977591;28;20342;-86
2021/08/22 02:02:36;;;;;;;10.18;4.78;;;;;;;14.55;78.28;91055.00;4978522;28;20029;-86
2021/08/22 02:05:18;;;;;;;7.68;4.25;;;;;;;14.39;79.61;91051.72;4979036;28;20509;-86
2021/08/22 02:07:57;;;;;;;10.02;4.93;;;;;;;14.30;79.55;91042.19;4979267;28;20034;-86
2021/08/22 02:10:37;;;;;;;9.18;4.53;;;;;;;14.14;79.93;91044.16;4979123;28;20050;-86
2021/08/22 02:13:14;;;;;;;7.70;4.75;;;;;;;14.19;79.53;91025.50;4977779;28;20027;-86
2021/08/22 02:15:55;;;;;;;9.30;4.28;;;;;;;14.21;79.77;91019.94;4962263;28;20498;-85
2021/08/22 02:18:29;;;;;;;9.02;4.43;;;;;;;14.13;79.77;91013.78;4979089;28;20034;-86
2021/08/22 02:21:08;;;;;;;8.20;3.90;;;;;;;14.18;80.13;91021.38;4993883;28;20028;-86
2021/08/22 02:23:44;;;;;;;8.40;4.35;;;;;;;14.19;79.30;91015.03;4979217;28;20782;-86
2021/08/22 02:26:23;;;;;;;8.32;4.07;;;;;;;14.19;78.60;91007.16;4967216;28;20048;-86
2021/08/22 02:29:05;;;;;;;7.50;4.35;;;;;;;14.15;78.42;91024.69;4961567;28;20490;-86
2021/08/22 02:31:43;;;;;;;8.57;4.18;;;;;;;14.05;78.41;91018.13;4977130;28;20122;-86
2021/08/22 02:34:21;;;;;;;8.50;4.25;;;;;;;14.13;78.62;91018.25;4961303;28;20030;-85
2021/08/22 02:37:00;;;;;;;7.70;3.58;;;;;;;14.21;77.56;91018.06;4962145;28;20069;-86
2021/08/22 02:39:38;;;;;;;7.65;4.25;;;;;;;14.21;77.54;91018.06;4977233;28;20022;-86
2021/08/22 02:42:15;;;;;;;6.95;4.00;;;;;;;14.22;77.27;91014.34;4976896;28;20050;-86
2021/08/22 02:44:50;;;;;;;7.90;4.38;;;;;;;14.29;76.53;91001.34;4977527;28;20034;-86
2021/08/22 02:47:33;;;;;;;9.07;4.70;;;;;;;14.33;76.02;91007.41;4961728;28;20030;-86
2021/08/22 02:50:09;;;;;;;7.47;4.22;;;;;;;14.32;75.78;90998.03;4993210;28;20065;-86
2021/08/22 02:52:42;;;;;;;7.07;4.32;;;;;;;14.48;75.00;91007.66;4961138;28;20030;-86
2021/08/22 02:55:20;;;;;;;8.32;4.35;;;;;;;14.47;74.57;90999.03;4977430;28;20026;-87
2021/08/22 02:58:00;;;;;;;6.35;4.05;;;;;;;14.49;74.35;90996.84;4977700;28;20030;-86
2021/08/22 03:00:39;;;;;;;7.32;4.10;;;;;;;14.43;75.20;90994.84;4977731;28;20022;-87
2021/08/22 03:03:11;;;;;;;7.15;3.95;;;;;;;14.44;75.01;90997.09;4977701;28;20026;-85
2021/08/22 03:05:46;;;;;;;8.20;3.97;;;;;;;14.58;73.65;91001.84;4961599;28;20084;-86
2021/08/22 03:08:23;;;;;;;7.40;3.88;;;;;;;14.41;74.42;91015.41;4978233;28;20026;-86
2021/08/22 03:11:03;;;;;;;8.10;4.30;;;;;;;14.46;74.20;91008.00;4994183;28;20034;-86
2021/08/22 03:13:42;;;;;;;8.35;4.50;;;;;;;14.53;74.52;91008.16;4977917;28;20026;-86
2021/08/22 03:16:24;;;;;;;6.30;3.80;;;;;;;14.53;74.08;91015.28;4993739;28;20549;-84
2021/08/22 03:19:00;;;;;;;7.57;4.13;;;;;;;14.57;73.06;91016.09;4961098;28;20070;-85
2021/08/22 03:21:37;;;;;;;7.57;3.80;;;;;;;14.57;72.80;91026.56;4960934;28;20457;-86
2021/08/22 03:24:17;;;;;;;9.32;4.60;;;;;;;14.55;72.92;91026.16;4979784;28;20041;-88
2021/08/22 03:26:56;;;;;;;7.57;4.05;;;;;;;14.47;73.49;91025.25;5011659;28;20029;-87
2021/08/22 03:29:30;;;;;;;8.00;4.30;;;;;;;14.46;73.46;91015.13;4987013;28;20057;-87
2021/08/22 03:32:09;;;;;;;6.93;4.13;;;;;;;14.51;73.48;91033.22;4986151;28;20176;-86
2021/08/22 03:34:44;;;;;;;8.02;4.22;;;;;;;14.52;73.51;91032.09;4971247;28;20038;-86
2021/08/22 03:37:24;;;;;;;6.55;4.07;;;;;;;14.45;73.75;91029.31;5021468;28;20033;-86
2021/08/22 03:39:56;;;;;;;7.15;3.88;;;;;;;14.47;73.44;91022.63;5002471;28;20227;-86
2021/08/22 03:42:33;;;;;;;6.55;3.92;;;;;;;14.42;74.78;91040.53;4985117;28;20018;-85
2021/08/22 03:45:07;;;;;;;10.52;4.55;;;;;;;14.34;74.87;91037.00;4997788;28;20010;-86
2021/08/22 03:47:45;;;;;;;8.27;3.90;;;;;;;14.55;73.30;91040.03;4982616;28;20093;-85
2021/08/22 03:50:16;;;;;;;7.68;4.50;;;;;;;14.51;73.85;91033.97;4997207;28;20034;-85
2021/08/22 03:52:53;;;;;;;7.30;3.90;;;;;;;14.41;74.53;91033.75;4964671;28;20053;-85
2021/08/22 03:55:29;;;;;;;8.55;4.20;;;;;;;14.40;73.65;91022.50;5075787;23;20048;-86
2021/08/22 03:58:05;;;;;;;7.80;4.60;;;;;;;14.42;74.65;91035.28;5035463;28;20469;-85
2021/08/22 04:00:46;;;;;;;7.10;4.03;;;;;;;14.50;74.10;91047.44;5035390;28;20052;-86
2021/08/22 04:03:23;;;;;;;8.13;4.00;;;;;;;14.42;74.95;91051.00;5034398;28;20024;-87
2021/08/22 04:05:58;;;;;;;8.00;4.38;;;;;;;14.31;75.45;91064.69;5034864;28;20029;-88
2021/08/22 04:08:35;;;;;;;9.50;4.40;;;;;;;14.29;75.41;91066.88;5002832;28;20033;-88
2021/08/22 04:11:08;;;;;;;8.25;4.93;;;;;;;14.23;76.01;91067.50;5019067;28;20473;-88
2021/08/22 04:13:42;;;;;;;15.32;6.38;;;;;;;14.24;76.49;91064.56;5034326;28;20056;-87
2021/08/22 04:16:24;;;;;;;11.85;5.35;;;;;;;14.18;77.47;91073.03;5034600;28;20029;-90
2021/08/22 04:18:58;;;;;;;10.13;5.30;;;;;;;14.20;76.86;91076.06;5036172;28;20025;-88
2021/08/22 04:21:33;;;;;;;9.27;4.60;;;;;;;14.18;78.04;91079.03;5002072;28;20030;-88
2021/08/22 04:24:09;;;;;;;9.00;4.72;;;;;;;14.26;76.87;91072.81;5034061;28;20029;-89
2021/08/22 04:26:44;;;;;;;7.93;4.40;;;;;;;14.23;78.25;91070.13;5002740;28;20025;-88
2021/08/22 04:29:26;;;;;;;9.20;4.72;;;;;;;14.23;78.01;91070.88;5017474;28;20033;-87
2021/08/22 04:32:01;;;;;;;8.43;4.70;;;;;;;14.36;77.72;91076.75;5051701;28;20064;-88
2021/08/22 04:34:38;;;;;;;7.78;4.10;;;;;;;14.29;78.32;91074.75;5017717;28;20033;-87
2021/08/22 04:37:18;;;;;;;8.15;4.50;;;;;;;14.30;78.59;91076.25;5035292;28;20078;-88
2021/08/22 04:40:01;;;;;;;10.82;4.40;;;;;;;14.46;78.66;91080.69;5018912;28;20539;-87
2021/08/22 04:42:32;;;;;;;7.40;4.70;;;;;;;14.47;78.33;91079.56;5019032;28;20021;-87
2021/08/22 04:45:06;;;;;;;9.15;5.05;;;;;;;14.33;79.77;91074.81;5017886;28;20049;-88
2021/08/22 04:47:46;;;;;;;9.02;4.88;;;;;;;14.45;78.80;91066.81;5000392;28;20083;-88
2021/08/22 04:50:28;;;;;;;8.57;4.93;;;;;;;14.54;79.15;91069.22;5008182;28;20025;-88
2021/08/22 04:53:03;;;;;;;9.75;5.40;;;;;;;14.55;79.02;91070.75;5045753;28;20033;-88
2021/08/22 04:55:45;;;;;;;10.30;4.78;;;;;;;14.41;79.73;91067.84;5013892;28;20558;-88
2021/08/22 04:58:24;;;;;;;9.30;5.22;;;;;;;14.54;78.93;91069.97;5016002;28;20397;-88
2021/08/22 05:01:01;;;;;;;11.55;5.18;;;;;;;14.56;79.50;91069.66;4997906;28;20037;-88
2021/08/22 05:03:41;;;;;;;11.05;4.72;;;;;;;14.54;79.98;91071.84;4998664;28;20024;-88
2021/08/22 05:06:19;;;;;;;10.88;5.07;;;;;;;14.57;79.33;91074.53;5015294;28;20437;-88
2021/08/22 05:08:59;;;;;;;8.20;5.10;;;;;;;14.55;79.46;91075.97;4999305;28;20030;-88
2021/08/22 05:11:40;;;;;;;12.48;5.13;;;;;;;14.62;79.84;91073.47;5015092;28;20025;-89
2021/08/22 05:14:16;;;;;;;8.13;4.82;;;;;;;14.64;79.54;91073.91;4999979;28;20025;-88
2021/08/22 05:16:54;;;;;;;9.13;5.10;;;;;;;14.64;79.72;91073.91;5031641;28;20414;-88
2021/08/22 05:19:30;;;;;;;9.68;5.40;;;;;;;14.64;80.03;91068.66;5018065;28;20051;-88
2021/08/22 05:22:07;;;;;;;9.18;4.90;;;;;;;14.63;80.15;91072.41;5014242;28;20021;-88
2021/08/22 05:24:42;;;;;;;11.48;5.38;;;;;;;14.71;79.73;91079.28;5015193;28;20089;-89
2021/08/22 05:27:14;;;;;;;11.75;5.30;;;;;;;14.59;79.94;91084.66;4999158;28;20017;-88
2021/08/22 05:29:50;;;;;;;10.63;5.15;;;;;;;14.64;79.74;91079.16;4982082;28;20037;-88
2021/08/22 05:32:28;;;;;;;11.85;5.63;;;;;;;14.72;79.46;91080.03;5014192;28;20108;-88
2021/08/22 05:35:06;;;;;;;7.72;5.03;;;;;;;14.59;80.32;91076.78;4998757;28;20025;-87
2021/08/22 05:37:46;;;;;;;11.65;5.32;;;;;;;14.70;79.56;91076.97;5015289;28;20052;-88
2021/08/22 05:40:24;;;;;;;8.88;5.28;;;;;;;14.73;79.66;91087.53;4998782;28;20401;-88
2021/08/22 05:43:04;;;;;;;9.30;5.03;;;;;;;14.71;80.00;91084.53;5038760;28;20017;-88
2021/08/22 05:45:31;;;;;;;10.10;4.88;;;;;;;14.67;80.38;91083.72;5018399;28;20021;-89
2021/08/22 05:48:10;;;;;;;12.02;5.43;;;;;;;14.77;79.15;91075.25;5020884;28;20029;-88
2021/08/22 05:50:41;;;;;;;9.00;5.03;;;;;;;14.83;79.12;91086.97;5021972;28;20024;-88
2021/08/22 05:53:16;;;;;;;9.07;5.40;;;;;;;14.83;79.39;91089.59;5020811;28;20021;-88
2021/08/22 05:55:50;;;;;;;7.75;4.55;;;;;;;14.79;79.59;91085.41;5054947;28;20071;-88
2021/08/22 05:58:28;;;;;;;9.40;5.60;;;;;;;14.87;79.39;91088.91;5020914;28;20082;-89
2021/08/22 06:01:07;;;;;;;9.90;5.03;;;;;;;14.89;79.94;91084.06;5038976;28;20029;-88
2021/08/22 06:03:38;;;;;;;9.32;5.30;;;;;;;14.94;79.81;91086.38;5021553;28;20021;-88
2021/08/22 06:06:12;;;;;;;9.93;5.30;;;;;;;14.98;79.90;91076.69;5037461;28;20029;-88
2021/08/22 06:08:48;;;;;;;6.97;4.32;;;;;;;14.96;80.44;91089.44;5021080;28;20039;-88
2021/08/22 06:11:24;;;;;;;9.02;4.90;;;;;;;14.96;80.48;91082.31;5025335;28;20037;-88
2021/08/22 06:14:02;;;;;;;10.15;5.53;;;;;;;14.95;81.10;91088.69;5017601;28;20095;-88
2021/08/22 06:16:42;;;;;;;9.55;5.60;;;;;;;14.78;82.26;91089.13;5002931;28;20021;-88
2021/08/22 06:19:18;;;;;;;10.25;5.72;;;;;;;14.93;80.97;91093.50;5038290;28;20037;-88
2021/08/22 06:21:57;;;;;;;9.38;5.50;;;;;;;14.93;81.75;91108.50;5038615;28;20492;-89
2021/08/22 06:24:36;;;;;;;10.40;5.60;;;;;;;14.89;82.39;91097.19;5007709;28;20111;-88
2021/08/22 06:27:14;;;;;;;9.93;5.35;;;;;;;14.93;82.07;91106.63;5058560;28;20077;-90
2021/08/22 06:29:47;;;;;;;9.88;5.63;;;;;;;14.79;82.29;91112.38;5060081;28;20033;-86
2021/08/22 06:32:22;;;;;;;10.18;6.25;;;;;;;14.75;83.75;91106.31;5039504;28;20025;-87
2021/08/22 06:34:58;;;;;;;12.02;6.03;;;;;;;14.83;83.08;91107.94;5028768;28;20028;-88
2021/08/22 06:37:29;;;;;;;12.00;6.00;;;;;;;14.67;84.17;91109.19;5037745;28;20044;-88
2021/08/22 06:40:11;;;;;;;10.68;6.28;;;;;;;14.64;84.81;91105.38;5036451;28;20119;-88
2021/08/22 06:42:48;;;;;;;9.52;5.75;;;;;;;14.69;84.05;91105.09;5036132;28;20434;-88
2021/08/22 06:45:27;;;;;;;12.80;6.50;;;;;;;14.64;84.84;91102.75;5021429;28;20021;-88
2021/08/22 06:48:07;;;;;;;12.18;6.15;;;;;;;14.80;84.38;91113.91;5022495;28;20021;-88
2021/08/22 06:50:42;;;;;;;8.93;5.85;;;;;;;14.69;84.09;91102.47;5037430;28;20497;-88
2021/08/22 06:53:19;;;;;;;9.20;5.60;;;;;;;14.72;84.40;91093.16;5036228;28;20095;-89
2021/08/22 06:55:56;;;;;;;13.30;6.45;;;;;;;14.56;85.91;91093.25;5020246;28;20401;-89
2021/08/22 06:58:31;;;;;;;10.32;5.65;;;;;;;14.74;85.17;91104.81;5034386;28;20035;-87
2021/08/22 07:01:07;;;;;;;9.32;5.57;;;;;;;14.75;84.76;91105.56;5019367;28;20025;-88
2021/08/22 07:03:44;;;;;;;8.68;5.30;;;;;;;14.78;85.15;91108.25;5036388;28;20486;-88
2021/08/22 07:06:10;;;;;;;9.25;5.57;;;;;;;14.81;85.54;91104.94;5017499;28;20032;-88
2021/08/22 07:08:41;;;;;;;9.27;5.50;;;;;;;14.88;84.84;91099.06;5025831;28;20040;-88
2021/08/22 07:11:12;;;;;;;9.25;5.40;;;;;;;14.82;85.35;91108.31;5019659;28;20032;-89
2021/08/22 07:13:40;;;;;;;8.98;5.47;;;;;;;15.02;84.83;91109.03;5035525;28;20028;-87
2021/08/22 07:16:11;;;;;;;10.30;5.60;;;;;;;15.13;84.55;91107.34;5019342;28;20166;-85
2021/08/22 07:18:43;;;;;;;10.10;5.15;;;;;;;15.15;84.78;91117.47;5035363;28;20029;-88
2021/08/22 07:21:15;;;;;;;8.25;5.22;;;;;;;15.33;84.05;91107.25;5020039;28;20095;-86
2021/08/22 07:23:49;;;;;;;7.35;4.57;;;;;;;15.50;83.75;91106.78;5036628;28;20119;-86
2021/08/22 07:26:15;;;;;;;9.88;5.00;;;;;;;15.59;83.46;91109.16;5014626;28;20021;-87
2021/08/22 07:28:43;;;;;;;8.45;5.05;;;;;;;15.50;82.75;91101.50;5018827;28;20024;-87
2021/08/22 07:31:18;;;;;;;10.15;4.10;;;;;;;15.63;82.58;91104.72;5019097;28;20521;-86
2021/08/22 07:33:47;;;;;;;8.32;4.70;;;;;;;15.57;83.57;91095.63;5035508;28;20104;-88
2021/08/22 07:36:33;;;;;;;8.85;4.68;;;;;;;15.63;81.97;91092.34;5035684;28;20033;-87
2021/08/22 07:39:11;;;;;;;7.50;4.88;;;;;;;15.72;80.93;91102.59;5020500;28;20104;-87
2021/08/22 07:41:49;;;;;;;8.93;5.28;;;;;;;15.72;81.30;91097.34;5030880;28;20022;-86
2021/08/22 07:44:28;;;;;;;10.55;5.15;;;;;;;15.74;81.69;91106.41;4985259;28;20029;-88
2021/08/22 07:47:06;;;;;;;8.82;5.40;;;;;;;15.72;81.81;91111.25;5001195;28;20025;-87
2021/08/22 07:49:45;;;;;;;8.98;5.28;;;;;;;15.60;82.06;91106.16;5015852;28;20417;-87
2021/08/22 07:52:22;;;;;;;7.80;4.72;;;;;;;15.66;82.16;91117.94;5000776;28;20104;-89
2021/08/22 07:55:02;;;;;;;7.78;5.43;;;;;;;15.70;81.46;91116.09;5004471;28;20037;-88
2021/08/22 07:57:38;;;;;;;10.07;5.72;;;;;;;15.72;80.36;91118.38;5033398;28;20455;-86
2021/08/22 08:00:16;;;;;;;11.13;5.55;;;;;;;15.61;81.48;91114.81;5027488;28;20396;-87
2021/08/22 08:02:55;;;;;;;9.57;5.70;;;;;;;15.59;80.61;91112.53;5008815;28;20082;-85
2021/08/22 08:05:27;;;;;;;8.80;5.72;;;;;;;15.49;80.90;91115.75;5034899;28;20021;-87
2021/08/22 08:08:06;;;;;;;12.38;6.28;;;;;;;15.40;81.54;91123.13;5035797;28;20025;-87
2021/08/22 08:10:38;;;;;;;10.60;5.70;;;;;;;15.22;81.74;91115.72;5019535;28;20484;-87
2021/08/22 08:13:15;;;;;;;9.75;6.00;;;;;;;15.22;82.46;91123.59;5036672;28;20029;-87
2021/08/22 08:15:53;;;;;;;12.02;5.45;;;;;;;15.19;81.56;91126.91;5036399;28;20607;-87
2021/08/22 08:18:29;;;;;;;9.25;5.75;;;;;;;15.34;81.57;91129.78;5021530;28;20021;-86
2021/08/22 08:21:09;;;;;;;9.98;6.15;;;;;;;15.26;81.69;91129.69;5019365;28;20021;-86
2021/08/22 08:23:40;;;;;;;10.95;6.07;;;;;;;15.40;80.90;91133.63;5021530;28;20104;-86
2021/08/22 08:26:21;;;;;;;14.18;5.95;;;;;;;15.43;81.95;91122.41;5019371;28;20068;-86
2021/08/22 08:29:01;;;;;;;11.65;6.32;;;;;;;15.41;81.79;91127.28;5035525;28;20025;-86
2021/08/22 08:31:38;;;;;;;10.18;5.97;;;;;;;15.44;80.80;91127.34;5004743;28;20035;-86
2021/08/22 08:34:16;;;;;;;13.93;6.68;;;;;;;15.33;81.29;91128.25;5028080;28;20033;-86
2021/08/22 08:36:52;;;;;;;8.43;5.72;;;;;;;15.30;80.61;91125.25;4985948;28;20383;-87
2021/08/22 08:39:33;;;;;;;8.68;5.57;;;;;;;15.29;81.07;91126.34;5002086;28;20022;-87
2021/08/22 08:42:38;;;;;;;11.13;5.60;;;;;;;15.30;81.62;91140.25;5017991;28;20029;-87
2021/08/22 08:45:12;;;;;;;10.55;6.00;;;;;;;15.30;80.27;91130.50;5035202;28;20025;-87
2021/08/22 08:47:51;;;;;;;10.67;5.80;;;;;;;15.20;81.47;91141.56;5001353;28;20490;-87
2021/08/22 08:50:27;;;;;;;10.27;5.72;;;;;;;15.14;82.61;91137.72;5001726;28;20292;-87
2021/08/22 08:53:05;;;;;;;10.60;6.07;;;;;;;15.19;81.42;91137.41;5000000;28;20025;-87
2021/08/22 08:55:52;;;;;;;11.55;5.32;;;;;;;15.26;80.89;91145.44;5001060;28;20061;-87
2021/08/22 08:58:30;;;;;;;8.70;5.70;;;;;;;15.24;81.39;91139.75;5022130;28;20040;-87
2021/08/22 09:01:06;;;;;;;11.98;6.28;;;;;;;15.24;80.90;91136.38;5036979;28;20024;-87
2021/08/22 09:03:57;;;;;;;9.38;5.95;;;;;;;15.12;80.70;91131.28;5020090;28;20017;-87
2021/08/22 09:07:01;;;;;;;14.50;6.22;;;;;;;15.17;81.15;91142.28;5038058;28;20025;-86
2021/08/22 09:10:04;;;;;;;13.40;6.70;;;;;;;15.09;81.03;91129.38;5043313;28;20040;-87
2021/08/22 09:12:55;;;;;;;9.80;6.20;;;;;;;15.23;80.95;91137.47;5053377;28;20037;-86
2021/08/22 09:16:03;;;;;;;10.65;6.22;;;;;;;15.41;79.10;91141.16;5053112;28;20029;-87
2021/08/22 09:19:10;;;;;;;10.95;6.15;;;;;;;15.48;78.57;91143.16;5053310;28;20025;-86
2021/08/22 09:22:00;;;;;;;13.05;6.28;;;;;;;15.60;79.66;91132.44;5037444;28;20453;-86
2021/08/22 09:25:00;;;;;;;11.32;6.43;;;;;;;15.79;77.86;91139.47;5039213;28;20079;-87
2021/08/22 09:28:18;;;;;;;13.05;6.28;;;;;;;15.83;77.87;91145.56;5030602;28;20053;-87
2021/08/22 09:31:08;;;;;;;13.10;6.55;;;;;;;15.96;76.52;91138.22;4990905;28;20119;-87
2021/08/22 09:34:17;;;;;;;10.95;6.00;;;;;;;16.24;76.75;91138.59;5035597;28;20478;-87
2021/08/22 09:37:09;;;;;;;10.57;6.20;;;;;;;16.43;74.81;91144.81;5037184;28;20097;-87
2021/08/22 09:40:00;;;;;;;8.38;5.10;;;;;;;16.48;72.87;91141.91;5037497;28;20430;-87
2021/08/22 09:43:08;;;;;;;14.50;5.90;;;;;;;16.43;73.21;91144.81;5037654;28;20052;-87
2021/08/22 09:46:15;;;;;;;10.30;5.40;;;;;;;16.29;73.10;91142.03;5037321;28;20029;-87
2021/08/22 09:49:23;;;;;;;9.55;5.05;;;;;;;16.29;72.32;91128.88;5036413;28;20095;-87
2021/08/22 09:52:38;;;;;;;11.88;5.70;;;;;;;16.33;71.05;91127.06;5055144;28;20033;-87
2021/08/22 09:55:48;;;;;;;9.38;5.20;;;;;;;16.27;70.79;91126.63;5053830;22;20140;-85
2021/08/22 09:58:53;;;;;;;10.68;5.32;;;;;;;16.44;71.39;91139.22;5074965;28;20024;-87
2021/08/22 10:02:02;;;;;;;12.15;5.20;;;;;;;16.68;71.08;91124.84;5056534;28;20040;-87
2021/08/22 10:04:57;;;;;;;8.70;5.55;;;;;;;16.90;71.35;91130.34;5055972;28;20115;-87
2021/08/22 10:07:41;;;;;;;9.40;5.75;;;;;;;16.92;72.40;91128.09;5074869;28;20078;-87
2021/08/22 10:10:44;;;;;;;10.27;5.85;;;;;;;16.83;71.62;91127.66;5062387;28;20017;-91
2021/08/22 10:13:17;;;;;;;9.25;5.30;;;;;;;16.75;70.91;91126.03;5049269;28;20107;-87
2021/08/22 10:15:46;;;;;;;12.02;5.80;;;;;;;16.64;71.78;91128.53;5041587;28;20020;-87
2021/08/22 10:18:36;;;;;;;10.88;5.80;;;;;;;16.50;70.85;91137.00;5027894;28;20035;-88
2021/08/22 10:21:12;;;;;;;9.50;4.78;;;;;;;16.41;71.11;91141.81;5066899;28;20013;-88
2021/08/22 10:23:50;;;;;;;9.20;5.07;;;;;;;16.48;70.73;91131.38;5045247;28;20024;-85
2021/08/22 10:26:58;;;;;;;11.93;5.28;;;;;;;16.61;70.30;91124.75;5056001;28;20048;-86
2021/08/22 10:29:53;;;;;;;9.48;4.75;;;;;;;16.55;70.67;91125.44;5056272;28;20628;-86
2021/08/22 10:32:31;;;;;;;6.28;3.80;;;;;;;16.38;71.14;91121.47;5041762;28;20502;-86
2021/08/22 10:35:27;;;;;;;7.95;3.90;;;;;;;16.20;72.17;91127.28;5040408;28;20024;-86
2021/08/22 10:38:31;;;;;;;7.28;3.78;;;;;;;16.38;70.65;91124.09;5056272;28;20051;-86
2021/08/22 10:41:08;;;;;;;7.45;4.22;;;;;;;16.26;71.51;91119.84;5052215;28;20039;-86
2021/08/22 10:43:40;;;;;;;6.10;3.60;;;;;;;16.44;71.45;91109.53;5020986;28;20024;-86
2021/08/22 10:46:16;;;;;;;6.85;3.70;;;;;;;16.24;72.26;91111.53;5036560;28;20043;-85
2021/08/22 10:48:54;;;;;;;7.22;3.85;;;;;;;15.97;73.46;91108.19;5021702;28;20021;-86
2021/08/22 10:51:35;;;;;;;6.97;3.70;;;;;;;15.95;72.82;91113.81;5055299;28;20028;-86
2021/08/22 10:54:21;;;;;;;6.32;3.33;;;;;;;15.99;73.23;91116.50;5041069;28;20024;-87
2021/08/22 10:57:00;;;;;;;7.70;3.67;;;;;;;15.92;73.66;91106.63;5024143;28;20035;-86
2021/08/22 10:59:35;;;;;;;6.35;3.70;;;;;;;15.74;74.79;91116.91;5041480;28;20025;-86
2021/08/22 11:02:16;;;;;;;7.45;3.58;;;;;;;15.74;74.69;91119.53;5056811;28;20042;-85
2021/08/22 11:04:54;;;;;;;6.53;3.40;;;;;;;15.97;73.06;91114.22;5021125;28;20025;-86
2021/08/22 11:07:33;;;;;;;5.97;3.28;;;;;;;15.87;73.81;91106.97;5021716;28;20416;-86
2021/08/22 11:10:04;;;;;;;6.70;3.28;;;;;;;15.93;73.13;91096.88;5022147;28;20033;-86
2021/08/22 11:12:47;;;;;;;6.30;3.25;;;;;;;15.94;73.56;91101.78;5037111;28;20102;-86
2021/08/22 11:15:30;;;;;;;6.10;2.97;;;;;;;15.95;72.74;91099.91;5021700;28;20025;-85
2021/08/22 11:18:08;;;;;;;5.80;3.15;;;;;;;15.84;72.24;91110.28;5039051;28;20024;-85
2021/08/22 11:20:43;;;;;;;6.13;2.90;;;;;;;15.89;73.40;91106.59;5023493;28;20460;-86
2021/08/22 11:23:23;;;;;;;7.05;3.25;;;;;;;15.84;72.91;91107.66;5056035;28;20024;-85
2021/08/22 11:25:58;;;;;;;5.03;2.90;;;;;;;15.81;73.01;91103.13;5035856;28;20029;-86
2021/08/22 11:28:23;;;;;;;5.20;3.00;;;;;;;15.61;73.77;91112.94;5012487;28;20025;-86
2021/08/22 11:30:48;;;;;;;7.57;3.30;;;;;;;15.55;72.96;91111.75;5002835;28;20029;-86
2021/08/22 11:33:14;;;;;;;5.53;3.20;;;;;;;15.66;73.21;91119.81;5019670;28;20032;-86
2021/08/22 11:35:50;;;;;;;6.88;3.45;;;;;;;15.70;73.35;91117.97;5002574;28;20071;-86
2021/08/22 11:38:27;;;;;;;7.97;4.00;;;;;;;15.77;72.66;91110.94;5003122;28;20489;-86
2021/08/22 11:41:08;;;;;;;8.10;3.72;;;;;;;16.10;70.93;91114.75;5020788;28;20032;-86
2021/08/22 11:43:46;;;;;;;11.20;4.65;;;;;;;16.16;69.68;91105.44;5037200;28;20017;-85
2021/08/22 11:46:22;;;;;;;7.32;3.70;;;;;;;16.41;68.84;91091.84;5003322;28;20034;-86
2021/08/22 11:48:55;;;;;;;9.85;4.30;;;;;;;16.37;67.81;91094.44;5004168;28;20021;-85
2021/08/22 11:51:32;;;;;;;8.60;4.10;;;;;;;16.21;70.65;91102.50;5019691;28;20375;-86
2021/08/22 11:54:07;;;;;;;7.15;4.07;;;;;;;16.22;69.96;91104.03;5003482;28;20029;-86
2021/08/22 11:56:43;;;;;;;8.90;3.72;;;;;;;16.10;70.69;91106.88;5019574;28;20025;-86
2021/08/22 11:59:33;;;;;;;7.22;4.13;;;;;;;15.91;70.13;91096.50;5003773;28;20497;-86
2021/08/22 12:02:25;;;;;;;7.68;3.83;;;;;;;15.86;69.87;91102.03;5019452;28;20036;-86
2021/08/22 12:05:27;;;;;;;8.27;3.88;;;;;;;16.02;70.26;91094.75;5036197;28;20550;-86
2021/08/22 12:08:07;;;;;;;8.00;3.90;;;;;;;16.14;69.10;91091.88;5054302;28;20465;-87
2021/08/22 12:10:39;;;;;;;7.90;3.80;;;;;;;16.05;70.47;91093.28;5053649;28;20024;-86
2021/08/22 12:13:36;;;;;;;7.40;3.58;;;;;;;15.99;71.00;91088.34;5020111;28;20453;-86
2021/08/22 12:16:34;;;;;;;7.63;3.75;;;;;;;16.04;70.30;91092.50;5022320;28;20041;-87
2021/08/22 12:19:31;;;;;;;7.97;3.80;;;;;;;15.85;70.25;91100.53;5004519;28;20045;-86
2021/08/22 12:22:15;;;;;;;8.02;3.97;;;;;;;15.77;71.84;91097.81;5021762;28;20017;-86
2021/08/22 12:24:57;;;;;;;7.65;4.10;;;;;;;15.78;71.17;91095.94;5020541;28;20021;-86
2021/08/22 12:27:34;;;;;;;6.47;4.05;;;;;;;15.90;70.81;91087.06;5052031;28;20489;-86
2021/08/22 12:30:19;;;;;;;7.78;3.88;;;;;;;15.86;70.85;91088.91;5036754;28;20053;-87